sensor_id;sensor_type;location;lat;lon;timestamp;temperature;humidity
17956;DHT22;27666;51.498;11.966;2024-01-25T06:16:40;8.70;99.90
17956;DHT22;27666;51.498;11.966;2024-01-25T06:19:26;8.70;99.90
17956;DHT22;27666;51.498;11.966;2024-01-25T06:22:13;8.80;99.90
17956;DHT22;27666;51.498;11.966;2024-01-25T06:25:03;9.00;99.90
17956;DHT22;27666;51.498;11.966;2024-01-25T06:27:53;9.00;99.90
17956;DHT22;27666;51.498;11.966;2024-01-25T06:30:40;9.00;99.90
17956;DHT22;27666;51.498;11.966;2024-01-25T06:33:27;9.10;99.90
17956;DHT22;27666;51.498;11.966;2024-01-25T06:36:14;9.10;99.90
17956;DHT22;27666;51.498;11.966;2024-01-25T06:39:01;9.20;99.90
17956;DHT22;27666;51.498;11.966;2024-01-25T06:41:49;9.20;99.90
17956;DHT22;27666;51.498;11.966;2024-01-25T06:44:36;9.20;99.90
17956;DHT22;27666;51.498;11.966;2024-01-25T06:47:22;9.30;99.90
17956;DHT22;27666;51.498;11.966;2024-01-25T06:50:10;9.20;99.90
17956;DHT22;27666;51.498;11.966;2024-01-25T06:52:57;9.20;99.90
17956;DHT22;27666;51.498;11.966;2024-01-25T06:55:44;9.20;99.90
17956;DHT22;27666;51.498;11.966;2024-01-25T06:58:30;9.20;99.90
17956;DHT22;27666;51.498;11.966;2024-01-25T07:01:20;9.10;99.90
17956;DHT22;27666;51.498;11.966;2024-01-25T07:04:07;9.20;99.90
17956;DHT22;27666;51.498;11.966;2024-01-25T07:06:56;9.20;99.90
17956;DHT22;27666;51.498;11.966;2024-01-25T07:09:44;9.10;99.90
17956;DHT22;27666;51.498;11.966;2024-01-25T07:12:30;9.10;99.90
17956;DHT22;27666;51.498;11.966;2024-01-25T07:15:17;9.00;99.90
17956;DHT22;27666;51.498;11.966;2024-01-25T07:18:04;9.10;99.90
17956;DHT22;27666;51.498;11.966;2024-01-25T07:20:51;9.10;99.90
17956;DHT22;27666;51.498;11.966;2024-01-25T07:23:38;9.10;99.90
17956;DHT22;27666;51.498;11.966;2024-01-25T07:26:25;9.10;99.90
17956;DHT22;27666;51.498;11.966;2024-01-25T07:29:12;9.10;99.90
17956;DHT22;27666;51.498;11.966;2024-01-25T07:31:58;9.10;99.90
17956;DHT22;27666;51.498;11.966;2024-01-25T07:34:44;9.10;99.90
17956;DHT22;27666;51.498;11.966;2024-01-25T07:37:31;9.10;99.90
17956;DHT22;27666;51.498;11.966;2024-01-25T07:40:19;9.10;99.90
17956;DHT22;27666;51.498;11.966;2024-01-25T07:43:06;9.10;99.90
17956;DHT22;27666;51.498;11.966;2024-01-25T07:45:53;9.00;99.90
17956;DHT22;27666;51.498;11.966;2024-01-25T07:48:40;9.10;99.90
17956;DHT22;27666;51.498;11.966;2024-01-25T07:51:27;9.10;99.90
17956;DHT22;27666;51.498;11.966;2024-01-25T07:54:15;9.10;99.90
17956;DHT22;27666;51.498;11.966;2024-01-25T07:57:03;9.10;99.90
17956;DHT22;27666;51.498;11.966;2024-01-25T07:59:50;9.10;99.90
17956;DHT22;27666;51.498;11.966;2024-01-25T08:02:36;9.10;99.90
17956;DHT22;27666;51.498;11.966;2024-01-25T08:05:24;9.20;99.90
17956;DHT22;27666;51.498;11.966;2024-01-25T08:08:25;9.20;99.90
17956;DHT22;27666;51.498;11.966;2024-01-25T08:11:12;9.20;99.90
17956;DHT22;27666;51.498;11.966;2024-01-25T08:13:59;9.20;99.90
17956;DHT22;27666;51.498;11.966;2024-01-25T08:16:46;9.20;99.90
17956;DHT22;27666;51.498;11.966;2024-01-25T08:19:32;9.20;99.90
17956;DHT22;27666;51.498;11.966;2024-01-25T08:22:19;9.20;99.90
17956;DHT22;27666;51.498;11.966;2024-01-25T08:25:08;9.20;99.90
17956;DHT22;27666;51.498;11.966;2024-01-25T08:27:55;9.20;99.90
17956;DHT22;27666;51.498;11.966;2024-01-25T08:30:43;9.20;99.90
17956;DHT22;27666;51.498;11.966;2024-01-25T08:33:29;9.20;99.90
17956;DHT22;27666;51.498;11.966;2024-01-25T08:36:17;9.20;99.90
17956;DHT22;27666;51.498;11.966;2024-01-25T08:39:04;9.30;99.90
17956;DHT22;27666;51.498;11.966;2024-01-25T08:41:51;9.30;99.90
17956;DHT22;27666;51.498;11.966;2024-01-25T08:44:38;9.40;99.90
17956;DHT22;27666;51.498;11.966;2024-01-25T08:47:27;9.40;99.90
17956;DHT22;27666;51.498;11.966;2024-01-25T08:50:14;9.40;99.90
17956;DHT22;27666;51.498;11.966;2024-01-25T08:53:01;9.40;99.90
17956;DHT22;27666;51.498;11.966;2024-01-25T08:55:48;9.40;99.90
17956;DHT22;27666;51.498;11.966;2024-01-25T08:58:34;9.50;99.90
17956;DHT22;27666;51.498;11.966;2024-01-25T09:01:21;9.60;99.90
17956;DHT22;27666;51.498;11.966;2024-01-25T09:04:09;9.70;99.90
17956;DHT22;27666;51.498;11.966;2024-01-25T09:06:56;10.00;99.90
17956;DHT22;27666;51.498;11.966;2024-01-25T09:09:43;10.20;99.90
17956;DHT22;27666;51.498;11.966;2024-01-25T09:12:30;10.30;99.90
17956;DHT22;27666;51.498;11.966;2024-01-25T09:15:17;10.40;99.90
17956;DHT22;27666;51.498;11.966;2024-01-25T09:18:04;10.60;99.90
17956;DHT22;27666;51.498;11.966;2024-01-25T09:20:52;10.70;99.90
17956;DHT22;27666;51.498;11.966;2024-01-25T09:23:39;11.00;99.90
17956;DHT22;27666;51.498;11.966;2024-01-25T09:26:26;11.10;99.90
17956;DHT22;27666;51.498;11.966;2024-01-25T09:29:12;11.00;99.90
17956;DHT22;27666;51.498;11.966;2024-01-25T09:31:59;11.10;99.90
17956;DHT22;27666;51.498;11.966;2024-01-25T09:34:46;11.20;99.90
17956;DHT22;27666;51.498;11.966;2024-01-25T09:37:34;11.20;99.90
17956;DHT22;27666;51.498;11.966;2024-01-25T09:40:21;11.10;99.90
17956;DHT22;27666;51.498;11.966;2024-01-25T09:43:08;10.90;99.90
17956;DHT22;27666;51.498;11.966;2024-01-25T09:45:55;10.80;99.90
17956;DHT22;27666;51.498;11.966;2024-01-25T09:48:42;10.70;99.90
17956;DHT22;27666;51.498;11.966;2024-01-25T09:51:36;10.80;99.90
17956;DHT22;27666;51.498;11.966;2024-01-25T09:54:25;10.60;99.90
17956;DHT22;27666;51.498;11.966;2024-01-25T09:57:15;10.70;99.90
17956;DHT22;27666;51.498;11.966;2024-01-25T10:00:04;10.70;99.90
17956;DHT22;27666;51.498;11.966;2024-01-25T10:02:52;10.80;99.90
17956;DHT22;27666;51.498;11.966;2024-01-25T10:05:39;10.80;99.90
17956;DHT22;27666;51.498;11.966;2024-01-25T10:08:26;10.90;99.90
17956;DHT22;27666;51.498;11.966;2024-01-25T10:11:13;10.90;99.90
17956;DHT22;27666;51.498;11.966;2024-01-25T10:14:02;10.90;99.90
17956;DHT22;27666;51.498;11.966;2024-01-25T10:16:50;10.90;99.90
17956;DHT22;27666;51.498;11.966;2024-01-25T10:19:38;10.80;99.90
17956;DHT22;27666;51.498;11.966;2024-01-25T10:22:30;10.90;99.90
17956;DHT22;27666;51.498;11.966;2024-01-25T10:25:18;10.80;99.90
17956;DHT22;27666;51.498;11.966;2024-01-25T10:28:07;10.80;99.90
17956;DHT22;27666;51.498;11.966;2024-01-25T10:30:56;10.70;99.90
17956;DHT22;27666;51.498;11.966;2024-01-25T10:33:45;10.70;99.90
17956;DHT22;27666;51.498;11.966;2024-01-25T10:36:34;10.70;99.90
17956;DHT22;27666;51.498;11.966;2024-01-25T10:39:21;10.70;99.90
17956;DHT22;27666;51.498;11.966;2024-01-25T10:42:08;10.60;99.90
17956;DHT22;27666;51.498;11.966;2024-01-25T10:44:56;10.70;99.90
17956;DHT22;27666;51.498;11.966;2024-01-25T10:47:42;10.80;99.90
17956;DHT22;27666;51.498;11.966;2024-01-25T10:50:30;10.70;99.90
17956;DHT22;27666;51.498;11.966;2024-01-25T10:53:17;10.70;99.90
17956;DHT22;27666;51.498;11.966;2024-01-25T10:56:05;10.80;99.90
17956;DHT22;27666;51.498;11.966;2024-01-25T10:58:52;10.70;99.90
17956;DHT22;27666;51.498;11.966;2024-01-25T11:01:44;10.60;99.90
17956;DHT22;27666;51.498;11.966;2024-01-25T11:04:31;10.60;99.90
17956;DHT22;27666;51.498;11.966;2024-01-25T11:07:18;10.70;99.90
17956;DHT22;27666;51.498;11.966;2024-01-25T11:10:05;10.60;99.90
17956;DHT22;27666;51.498;11.966;2024-01-25T11:12:55;10.40;99.90
17956;DHT22;27666;51.498;11.966;2024-01-25T11:15:42;10.40;99.90
17956;DHT22;27666;51.498;11.966;2024-01-25T11:18:30;10.30;99.90
17956;DHT22;27666;51.498;11.966;2024-01-25T11:21:22;10.30;99.90
17956;DHT22;27666;51.498;11.966;2024-01-25T11:24:15;10.30;99.90
17956;DHT22;27666;51.498;11.966;2024-01-25T11:27:02;10.40;99.90
17956;DHT22;27666;51.498;11.966;2024-01-25T11:29:49;10.30;99.90
17956;DHT22;27666;51.498;11.966;2024-01-25T11:32:36;10.30;99.90
17956;DHT22;27666;51.498;11.966;2024-01-25T11:35:24;10.10;99.90
17956;DHT22;27666;51.498;11.966;2024-01-25T11:38:11;10.10;99.90
17956;DHT22;27666;51.498;11.966;2024-01-25T11:40:58;10.10;99.90
17956;DHT22;27666;51.498;11.966;2024-01-25T11:43:45;10.20;99.90
17956;DHT22;27666;51.498;11.966;2024-01-25T11:46:32;10.20;99.90
17956;DHT22;27666;51.498;11.966;2024-01-25T11:49:23;10.20;99.90
17956;DHT22;27666;51.498;11.966;2024-01-25T11:52:11;10.20;99.90
17956;DHT22;27666;51.498;11.966;2024-01-25T11:54:58;10.20;99.90
17956;DHT22;27666;51.498;11.966;2024-01-25T11:57:45;10.30;99.90
17956;DHT22;27666;51.498;11.966;2024-01-25T12:00:32;10.30;99.90
17956;DHT22;27666;51.498;11.966;2024-01-25T12:03:19;10.20;99.90
17956;DHT22;27666;51.498;11.966;2024-01-25T12:06:06;10.30;99.90
17956;DHT22;27666;51.498;11.966;2024-01-25T12:09:06;10.30;99.90
17956;DHT22;27666;51.498;11.966;2024-01-25T12:11:54;10.20;99.90
17956;DHT22;27666;51.498;11.966;2024-01-25T12:14:40;10.20;99.90
17956;DHT22;27666;51.498;11.966;2024-01-25T12:17:27;10.10;99.90
17956;DHT22;27666;51.498;11.966;2024-01-25T12:20:16;10.10;99.90
17956;DHT22;27666;51.498;11.966;2024-01-25T12:23:06;10.20;99.90
17956;DHT22;27666;51.498;11.966;2024-01-25T12:25:55;10.30;99.90
17956;DHT22;27666;51.498;11.966;2024-01-25T12:28:44;10.40;99.90
17956;DHT22;27666;51.498;11.966;2024-01-25T12:31:33;10.40;99.90
17956;DHT22;27666;51.498;11.966;2024-01-25T12:34:20;10.40;99.90
17956;DHT22;27666;51.498;11.966;2024-01-25T12:37:08;10.50;99.90
17956;DHT22;27666;51.498;11.966;2024-01-25T12:39:54;10.50;99.90
17956;DHT22;27666;51.498;11.966;2024-01-25T12:42:42;10.50;99.90
17956;DHT22;27666;51.498;11.966;2024-01-25T12:45:29;10.50;99.90
17956;DHT22;27666;51.498;11.966;2024-01-25T12:48:16;10.50;99.90
17956;DHT22;27666;51.498;11.966;2024-01-25T12:51:04;10.50;99.90
17956;DHT22;27666;51.498;11.966;2024-01-25T12:53:51;10.50;99.90
17956;DHT22;27666;51.498;11.966;2024-01-25T12:56:37;10.50;99.90
17956;DHT22;27666;51.498;11.966;2024-01-25T12:59:25;10.50;99.90
17956;DHT22;27666;51.498;11.966;2024-01-25T13:02:12;10.60;99.90
17956;DHT22;27666;51.498;11.966;2024-01-25T13:04:59;10.70;99.90
17956;DHT22;27666;51.498;11.966;2024-01-25T13:07:46;10.70;99.90
17956;DHT22;27666;51.498;11.966;2024-01-25T13:10:36;10.60;99.90
17956;DHT22;27666;51.498;11.966;2024-01-25T13:13:22;10.60;99.90
17956;DHT22;27666;51.498;11.966;2024-01-25T13:16:12;10.70;99.90
17956;DHT22;27666;51.498;11.966;2024-01-25T13:18:58;11.00;99.90
17956;DHT22;27666;51.498;11.966;2024-01-25T13:21:45;11.30;99.90
17956;DHT22;27666;51.498;11.966;2024-01-25T13:24:31;11.10;99.90
17956;DHT22;27666;51.498;11.966;2024-01-25T13:27:18;11.00;99.90
17956;DHT22;27666;51.498;11.966;2024-01-25T13:30:06;10.80;99.90
17956;DHT22;27666;51.498;11.966;2024-01-25T13:32:54;10.80;99.90
17956;DHT22;27666;51.498;11.966;2024-01-25T13:35:41;10.80;99.90
17956;DHT22;27666;51.498;11.966;2024-01-25T13:38:27;10.60;99.90
17956;DHT22;27666;51.498;11.966;2024-01-25T13:41:14;10.70;99.90
17956;DHT22;27666;51.498;11.966;2024-01-25T13:44:01;10.70;99.90
17956;DHT22;27666;51.498;11.966;2024-01-25T13:46:48;10.50;99.90
17956;DHT22;27666;51.498;11.966;2024-01-25T13:49:36;10.40;99.90
17956;DHT22;27666;51.498;11.966;2024-01-25T13:52:23;10.30;99.90
17956;DHT22;27666;51.498;11.966;2024-01-25T13:55:10;10.20;99.90
17956;DHT22;27666;51.498;11.966;2024-01-25T13:57:56;10.20;99.90
17956;DHT22;27666;51.498;11.966;2024-01-25T14:00:43;10.10;99.90
17956;DHT22;27666;51.498;11.966;2024-01-25T14:03:30;10.10;99.90
17956;DHT22;27666;51.498;11.966;2024-01-25T14:06:18;10.00;99.90
17956;DHT22;27666;51.498;11.966;2024-01-25T14:09:05;10.00;99.90
17956;DHT22;27666;51.498;11.966;2024-01-25T14:11:52;10.00;99.90
17956;DHT22;27666;51.498;11.966;2024-01-25T14:14:39;9.90;99.90
17956;DHT22;27666;51.498;11.966;2024-01-25T14:17:27;9.70;99.90
17956;DHT22;27666;51.498;11.966;2024-01-25T14:20:13;9.80;99.90
17956;DHT22;27666;51.498;11.966;2024-01-25T14:23:01;9.70;99.90
17956;DHT22;27666;51.498;11.966;2024-01-25T14:25:48;9.60;99.90
17956;DHT22;27666;51.498;11.966;2024-01-25T14:28:36;9.70;99.90
17956;DHT22;27666;51.498;11.966;2024-01-25T14:31:23;9.60;99.90
17956;DHT22;27666;51.498;11.966;2024-01-25T14:34:09;9.50;99.90
17956;DHT22;27666;51.498;11.966;2024-01-25T14:36:56;9.40;99.90
17956;DHT22;27666;51.498;11.966;2024-01-25T14:39:43;9.50;99.90
17956;DHT22;27666;51.498;11.966;2024-01-25T14:42:50;9.40;99.90
17956;DHT22;27666;51.498;11.966;2024-01-25T14:45:36;9.40;99.90
17956;DHT22;27666;51.498;11.966;2024-01-25T14:48:23;9.30;99.90
17956;DHT22;27666;51.498;11.966;2024-01-25T14:51:10;9.20;99.90
17956;DHT22;27666;51.498;11.966;2024-01-25T14:53:57;9.20;99.90
17956;DHT22;27666;51.498;11.966;2024-01-25T14:56:44;9.20;99.90
17956;DHT22;27666;51.498;11.966;2024-01-25T14:59:35;9.10;99.90
17956;DHT22;27666;51.498;11.966;2024-01-25T15:02:21;9.30;99.90
17956;DHT22;27666;51.498;11.966;2024-01-25T15:05:08;9.20;99.90
17956;DHT22;27666;51.498;11.966;2024-01-25T15:07:55;9.30;99.90
17956;DHT22;27666;51.498;11.966;2024-01-25T15:10:42;9.30;99.90
17956;DHT22;27666;51.498;11.966;2024-01-25T15:13:30;9.20;99.90
17956;DHT22;27666;51.498;11.966;2024-01-25T15:16:17;9.20;99.90
17956;DHT22;27666;51.498;11.966;2024-01-25T15:19:06;9.10;99.90
17956;DHT22;27666;51.498;11.966;2024-01-25T15:21:53;9.10;99.90
17956;DHT22;27666;51.498;11.966;2024-01-25T15:24:40;9.10;99.90
17956;DHT22;27666;51.498;11.966;2024-01-25T15:27:28;9.10;99.90
17956;DHT22;27666;51.498;11.966;2024-01-25T15:30:17;9.20;99.90
17956;DHT22;27666;51.498;11.966;2024-01-25T15:33:05;9.10;99.90
17956;DHT22;27666;51.498;11.966;2024-01-25T15:35:52;9.00;99.90
17956;DHT22;27666;51.498;11.966;2024-01-25T15:38:39;9.00;99.90
17956;DHT22;27666;51.498;11.966;2024-01-25T15:41:27;8.90;99.90
17956;DHT22;27666;51.498;11.966;2024-01-25T15:44:15;8.90;99.90
17956;DHT22;27666;51.498;11.966;2024-01-25T15:47:04;8.90;99.90
17956;DHT22;27666;51.498;11.966;2024-01-25T15:49:51;8.70;99.90
17956;DHT22;27666;51.498;11.966;2024-01-25T15:52:38;8.70;99.90
17956;DHT22;27666;51.498;11.966;2024-01-25T15:55:25;8.80;99.90
17956;DHT22;27666;51.498;11.966;2024-01-25T15:58:11;8.60;99.90
17956;DHT22;27666;51.498;11.966;2024-01-25T16:00:58;8.70;99.90
17956;DHT22;27666;51.498;11.966;2024-01-25T16:03:46;8.80;99.90
17956;DHT22;27666;51.498;11.966;2024-01-25T16:06:33;8.70;99.90
17956;DHT22;27666;51.498;11.966;2024-01-25T16:09:20;8.70;99.90
17956;DHT22;27666;51.498;11.966;2024-01-25T16:12:08;8.60;99.90
17956;DHT22;27666;51.498;11.966;2024-01-25T16:14:55;8.50;99.90
17956;DHT22;27666;51.498;11.966;2024-01-25T16:17:43;8.60;99.90
17956;DHT22;27666;51.498;11.966;2024-01-25T16:20:32;8.70;99.90
17956;DHT22;27666;51.498;11.966;2024-01-25T16:23:18;8.70;99.90
17956;DHT22;27666;51.498;11.966;2024-01-25T16:26:05;8.60;99.90
17956;DHT22;27666;51.498;11.966;2024-01-25T16:28:51;8.60;99.90
17956;DHT22;27666;51.498;11.966;2024-01-25T16:31:38;8.50;99.90
17956;DHT22;27666;51.498;11.966;2024-01-25T16:34:24;8.40;99.90
17956;DHT22;27666;51.498;11.966;2024-01-25T16:37:13;8.40;99.90
17956;DHT22;27666;51.498;11.966;2024-01-25T16:40:00;8.40;99.90
17956;DHT22;27666;51.498;11.966;2024-01-25T16:42:46;8.40;99.90
17956;DHT22;27666;51.498;11.966;2024-01-25T16:45:32;8.40;99.90
17956;DHT22;27666;51.498;11.966;2024-01-25T16:48:19;8.40;99.90
17956;DHT22;27666;51.498;11.966;2024-01-25T16:51:07;8.30;99.90
17956;DHT22;27666;51.498;11.966;2024-01-25T16:53:55;8.30;99.90
17956;DHT22;27666;51.498;11.966;2024-01-25T16:56:41;8.30;99.90
17956;DHT22;27666;51.498;11.966;2024-01-25T16:59:32;8.30;99.90
17956;DHT22;27666;51.498;11.966;2024-01-25T17:02:19;8.30;99.90
17956;DHT22;27666;51.498;11.966;2024-01-25T17:05:06;8.20;99.90
17956;DHT22;27666;51.498;11.966;2024-01-25T17:07:52;8.20;99.90
17956;DHT22;27666;51.498;11.966;2024-01-25T17:10:40;8.10;99.90
17956;DHT22;27666;51.498;11.966;2024-01-25T17:13:27;8.10;99.90
17956;DHT22;27666;51.498;11.966;2024-01-25T17:16:13;8.10;99.90
17956;DHT22;27666;51.498;11.966;2024-01-25T17:19:00;8.10;99.90
17956;DHT22;27666;51.498;11.966;2024-01-25T17:21:47;8.10;99.90
17956;DHT22;27666;51.498;11.966;2024-01-25T17:24:34;8.10;99.90
17956;DHT22;27666;51.498;11.966;2024-01-25T17:27:23;8.00;99.90
17956;DHT22;27666;51.498;11.966;2024-01-25T17:30:10;8.00;99.90
17956;DHT22;27666;51.498;11.966;2024-01-25T17:32:57;8.00;99.90
17956;DHT22;27666;51.498;11.966;2024-01-25T17:35:44;7.90;99.90
17956;DHT22;27666;51.498;11.966;2024-01-25T17:38:33;7.90;99.90
17956;DHT22;27666;51.498;11.966;2024-01-25T17:41:20;7.80;99.90
17956;DHT22;27666;51.498;11.966;2024-01-25T17:44:08;7.80;99.90
17956;DHT22;27666;51.498;11.966;2024-01-25T17:46:56;7.80;99.90
17956;DHT22;27666;51.498;11.966;2024-01-25T17:49:44;7.80;99.90
17956;DHT22;27666;51.498;11.966;2024-01-25T17:52:30;7.80;99.90
17956;DHT22;27666;51.498;11.966;2024-01-25T17:55:17;7.70;99.90
17956;DHT22;27666;51.498;11.966;2024-01-25T17:58:03;7.80;99.90
17956;DHT22;27666;51.498;11.966;2024-01-25T18:00:51;7.70;99.90
17956;DHT22;27666;51.498;11.966;2024-01-25T18:03:38;7.70;99.90
17956;DHT22;27666;51.498;11.966;2024-01-25T18:06:25;7.70;99.90
17956;DHT22;27666;51.498;11.966;2024-01-25T18:09:11;7.60;99.90
17956;DHT22;27666;51.498;11.966;2024-01-25T18:11:58;7.60;99.90
17956;DHT22;27666;51.498;11.966;2024-01-25T18:14:44;7.60;99.90
17956;DHT22;27666;51.498;11.966;2024-01-25T18:17:35;7.60;99.90
17956;DHT22;27666;51.498;11.966;2024-01-25T18:20:22;7.60;99.90
17956;DHT22;27666;51.498;11.966;2024-01-25T18:23:08;7.60;99.90
17956;DHT22;27666;51.498;11.966;2024-01-25T18:25:55;7.50;99.90
17956;DHT22;27666;51.498;11.966;2024-01-25T18:28:41;7.50;99.90
17956;DHT22;27666;51.498;11.966;2024-01-25T18:31:27;7.60;99.90
17956;DHT22;27666;51.498;11.966;2024-01-25T18:34:15;7.50;99.90
17956;DHT22;27666;51.498;11.966;2024-01-25T18:37:02;7.50;99.90
17956;DHT22;27666;51.498;11.966;2024-01-25T18:39:49;7.50;99.90
17956;DHT22;27666;51.498;11.966;2024-01-25T18:42:37;7.50;99.90
17956;DHT22;27666;51.498;11.966;2024-01-25T18:45:24;7.40;99.90
17956;DHT22;27666;51.498;11.966;2024-01-25T18:48:10;7.40;99.90
17956;DHT22;27666;51.498;11.966;2024-01-25T18:50:58;7.40;99.90
17956;DHT22;27666;51.498;11.966;2024-01-25T18:53:47;7.30;99.90
17956;DHT22;27666;51.498;11.966;2024-01-25T18:56:34;7.30;99.90
17956;DHT22;27666;51.498;11.966;2024-01-25T18:59:21;7.20;99.90
17956;DHT22;27666;51.498;11.966;2024-01-25T19:02:12;7.20;99.90
17956;DHT22;27666;51.498;11.966;2024-01-25T19:04:59;7.20;99.90
17956;DHT22;27666;51.498;11.966;2024-01-25T19:07:48;7.20;99.90
17956;DHT22;27666;51.498;11.966;2024-01-25T19:10:36;7.20;99.90
17956;DHT22;27666;51.498;11.966;2024-01-25T19:13:22;7.20;99.90
17956;DHT22;27666;51.498;11.966;2024-01-25T19:16:09;7.10;99.90
17956;DHT22;27666;51.498;11.966;2024-01-25T19:18:56;7.10;99.90
17956;DHT22;27666;51.498;11.966;2024-01-25T19:21:43;7.10;99.90
17956;DHT22;27666;51.498;11.966;2024-01-25T19:24:31;7.00;99.90
17956;DHT22;27666;51.498;11.966;2024-01-25T19:27:17;7.00;99.90
17956;DHT22;27666;51.498;11.966;2024-01-25T19:30:05;7.00;99.90
17956;DHT22;27666;51.498;11.966;2024-01-25T19:32:52;6.90;99.90
17956;DHT22;27666;51.498;11.966;2024-01-25T19:35:39;7.00;99.90
17956;DHT22;27666;51.498;11.966;2024-01-25T19:38:27;6.90;99.90
17956;DHT22;27666;51.498;11.966;2024-01-25T19:41:15;6.90;99.90
17956;DHT22;27666;51.498;11.966;2024-01-25T19:44:02;6.90;99.90
17956;DHT22;27666;51.498;11.966;2024-01-25T19:46:49;6.90;99.90
17956;DHT22;27666;51.498;11.966;2024-01-25T19:49:35;6.90;99.90
17956;DHT22;27666;51.498;11.966;2024-01-25T19:52:22;6.90;99.90
17956;DHT22;27666;51.498;11.966;2024-01-25T19:55:09;6.80;99.90
17956;DHT22;27666;51.498;11.966;2024-01-25T19:57:58;6.80;99.90
17956;DHT22;27666;51.498;11.966;2024-01-25T20:00:45;6.80;99.90
17956;DHT22;27666;51.498;11.966;2024-01-25T20:03:33;6.80;99.90
17956;DHT22;27666;51.498;11.966;2024-01-25T20:06:20;6.70;99.90
17956;DHT22;27666;51.498;11.966;2024-01-25T20:09:08;6.80;99.90
17956;DHT22;27666;51.498;11.966;2024-01-25T20:11:55;6.80;99.90
17956;DHT22;27666;51.498;11.966;2024-01-25T20:14:43;6.70;99.90
17956;DHT22;27666;51.498;11.966;2024-01-25T20:17:31;6.70;99.90
17956;DHT22;27666;51.498;11.966;2024-01-25T20:20:18;6.70;99.90
17956;DHT22;27666;51.498;11.966;2024-01-25T20:23:15;6.70;99.90
17956;DHT22;27666;51.498;11.966;2024-01-25T20:26:02;6.70;99.90
17956;DHT22;27666;51.498;11.966;2024-01-25T20:28:48;6.70;99.90
17956;DHT22;27666;51.498;11.966;2024-01-25T20:31:36;6.70;99.90
